Terminal Aerodrome Forecast
Issued by NWS Shreveport, LA

Home | Current Version | Previous Version | Text Only | Print | Product List | Glossary On
Versions: 1 2 3 4 5 6 7 8 9 10 11 12 13 14 15 16 17 18
000
FTUS44 KSHV 231700
TAFMLU
TAF
KMLU 231740Z 2318/2418 VRB05KT P6SM SCT030
     FM240000 20005KT P6SM FEW050 SCT250
     FM240800 20002KT 4SM BR SKC
     FM241500 25004KT P6SM SCT030=

USA.gov is the U.S. government's official web portal to all federal, state and local government web resources and services.